createdAt,value
2019-04-04T00:03:01.782Z,39.57
2019-04-04T00:06:03.735Z,33.13
2019-04-04T00:09:09.046Z,28.33
2019-04-04T00:12:10.949Z,34.47
2019-04-04T00:15:14.765Z,35.07
2019-04-04T00:18:16.870Z,34.60
2019-04-04T00:21:18.870Z,29.93
2019-04-04T00:24:20.989Z,33.60
2019-04-04T00:27:22.997Z,34.63
2019-04-04T00:30:24.907Z,40.77
2019-04-04T00:33:26.850Z,40.97
2019-04-04T00:36:28.802Z,32.20
2019-04-04T00:39:31.785Z,33.57
2019-04-04T00:42:33.760Z,47.97
2019-04-04T00:45:35.671Z,48.53
2019-04-04T00:48:37.715Z,39.70
2019-04-04T00:51:39.669Z,42.23
2019-04-04T00:54:44.640Z,41.83
2019-04-04T00:57:45.673Z,42.97
2019-04-04T01:00:47.627Z,38.33
2019-04-04T01:03:49.554Z,41.13
2019-04-04T01:06:51.511Z,39.07
2019-04-04T01:09:53.427Z,48.07
2019-04-04T01:12:55.404Z,41.67
2019-04-04T01:15:57.311Z,40.87
2019-04-04T01:18:59.629Z,38.70
2019-04-04T01:22:01.560Z,40.77
2019-04-04T01:25:05.473Z,40.43
2019-04-04T01:28:08.121Z,41.60
2019-04-04T01:31:10.749Z,39.43
2019-04-04T01:34:12.674Z,41.20
2019-04-04T01:37:14.637Z,41.10
2019-04-04T01:40:16.779Z,41.17
2019-04-04T01:43:18.720Z,38.00
2019-04-04T01:46:20.687Z,38.40
2019-04-04T01:49:22.669Z,37.37
2019-04-04T01:52:27.734Z,46.93
2019-04-04T01:55:30.505Z,49.00
2019-04-04T01:58:32.456Z,43.23
2019-04-04T02:01:34.391Z,42.37
2019-04-04T02:04:36.364Z,41.53
2019-04-04T02:07:38.317Z,40.20
2019-04-04T02:10:41.474Z,43.93
2019-04-04T02:13:43.447Z,48.40
2019-04-04T02:16:48.511Z,49.83
2019-04-04T02:19:49.353Z,39.40
2019-04-04T02:22:51.652Z,43.03
2019-04-04T02:25:54.663Z,46.23
2019-04-04T02:28:56.604Z,47.77
2019-04-04T02:32:03.076Z,52.27
2019-04-04T02:35:10.306Z,48.67
2019-04-04T02:38:10.923Z,37.13
2019-04-04T02:41:15.539Z,51.30
2019-04-04T02:44:17.110Z,40.77
2019-04-04T02:47:19.087Z,45.67
2019-04-04T02:50:21.085Z,43.07
2019-04-04T02:53:22.995Z,44.20
2019-04-04T02:56:24.915Z,41.33
2019-04-04T02:59:26.861Z,40.83
2019-04-04T03:02:28.864Z,43.67
2019-04-04T03:05:30.924Z,40.33
2019-04-04T03:08:36.550Z,39.90
2019-04-04T03:11:37.748Z,42.10
2019-04-04T03:14:39.663Z,44.50
2019-04-04T03:17:41.665Z,35.83
2019-04-04T03:20:43.810Z,45.23
2019-04-04T03:23:45.780Z,36.57
2019-04-04T03:26:52.298Z,36.93
2019-04-04T03:29:51.545Z,37.13
2019-04-04T03:32:54.967Z,34.07
2019-04-04T03:36:00.130Z,43.17
2019-04-04T03:39:01.401Z,43.83
2019-04-04T03:42:06.959Z,33.80
2019-04-04T03:45:07.336Z,34.17
2019-04-04T03:48:09.260Z,36.63
2019-04-04T03:51:11.275Z,36.23
2019-04-04T03:54:15.147Z,38.23
2019-04-04T03:57:17.355Z,36.17
2019-04-04T04:00:29.541Z,39.13
2019-04-04T04:03:31.574Z,35.27
2019-04-04T04:06:33.516Z,33.37
2019-04-04T04:09:36.838Z,38.27
2019-04-04T04:12:42.599Z,36.00
2019-04-04T04:15:42.728Z,36.80
2019-04-04T04:18:44.686Z,34.00
2019-04-04T04:21:46.802Z,37.80
2019-04-04T04:24:48.715Z,38.77
2019-04-04T04:27:50.784Z,36.80
2019-04-04T04:30:52.828Z,34.97
2019-04-04T04:33:54.926Z,39.90
2019-04-04T04:36:56.876Z,39.50
2019-04-04T04:39:58.838Z,34.93
2019-04-04T04:43:00.999Z,37.27
2019-04-04T04:46:03.115Z,36.70
2019-04-04T04:49:05.060Z,38.20
2019-04-04T04:52:07.080Z,38.20
2019-04-04T04:55:12.018Z,33.73
2019-04-04T04:58:16.105Z,41.23
2019-04-04T05:01:19.031Z,33.07
2019-04-04T05:04:21.385Z,34.50
2019-04-04T05:07:23.491Z,48.73
2019-04-04T05:10:25.525Z,31.57
2019-04-04T05:13:28.869Z,25.93
2019-04-04T05:16:31.428Z,27.27
2019-04-04T05:19:33.423Z,29.27
2019-04-04T05:22:35.674Z,27.03
2019-04-04T05:25:51.673Z,30.43
2019-04-04T05:28:42.119Z,26.63
2019-04-04T05:31:44.759Z,30.47
2019-04-04T05:34:46.700Z,28.20
2019-04-04T05:37:48.720Z,25.50
2019-04-04T05:40:53.260Z,22.87
2019-04-04T05:43:55.906Z,26.73
2019-04-04T05:46:57.817Z,23.27
2019-04-04T05:49:59.785Z,21.47
2019-04-04T05:53:02.117Z,26.00
2019-04-04T05:56:06.419Z,21.03
2019-04-04T05:59:09.041Z,22.50
2019-04-04T06:02:11.418Z,24.23
2019-04-04T06:05:14.111Z,24.83
2019-04-04T06:08:16.095Z,17.70
2019-04-04T06:11:20.847Z,17.57
2019-04-04T06:14:22.004Z,18.43
2019-04-04T06:17:26.924Z,21.07
2019-04-04T06:20:27.841Z,17.40
2019-04-04T06:23:29.915Z,21.10
2019-04-04T06:26:32.003Z,18.93
2019-04-04T06:29:33.983Z,25.50
2019-04-04T06:32:38.707Z,19.67
2019-04-04T06:35:40.127Z,19.30
2019-04-04T06:38:42.396Z,19.70
2019-04-04T06:41:44.376Z,15.40
2019-04-04T06:44:48.041Z,14.27
2019-04-04T06:47:50.044Z,24.77
2019-04-04T06:50:52.009Z,21.97
2019-04-04T06:53:54.554Z,18.80
2019-04-04T06:56:59.062Z,16.63
2019-04-04T07:00:00.664Z,21.63
2019-04-04T07:03:02.658Z,16.07
2019-04-04T07:06:04.633Z,17.73
2019-04-04T07:09:06.851Z,16.40
2019-04-04T07:12:20.336Z,19.20
2019-04-04T07:15:15.723Z,18.30
2019-04-04T07:18:16.755Z,16.80
2019-04-04T07:21:20.192Z,19.43
2019-04-04T07:24:22.705Z,20.23
2019-04-04T07:27:24.727Z,12.70
2019-04-04T07:30:28.424Z,15.53
2019-04-04T07:33:30.661Z,13.17
2019-04-04T07:36:32.652Z,13.53
2019-04-04T07:39:34.587Z,17.27
2019-04-04T07:42:36.511Z,19.13
2019-04-04T07:45:38.479Z,15.53
2019-04-04T07:48:40.469Z,15.33
2019-04-04T07:51:42.432Z,17.00
2019-04-04T07:54:44.489Z,19.73
2019-04-04T07:57:46.430Z,12.50
2019-04-04T08:00:48.954Z,23.03
2019-04-04T08:03:50.994Z,21.53
2019-04-04T08:06:52.913Z,13.87
2019-04-04T08:09:54.964Z,20.53
2019-04-04T08:12:56.974Z,31.20
2019-04-04T08:15:58.919Z,14.67
2019-04-04T08:19:00.878Z,17.97
2019-04-04T08:22:02.978Z,15.80
2019-04-04T08:25:05.259Z,14.53
2019-04-04T08:28:07.192Z,20.73
2019-04-04T08:31:09.928Z,18.43
2019-04-04T08:34:12.276Z,20.77
2019-04-04T08:37:14.252Z,15.10
2019-04-04T08:40:16.227Z,15.17
2019-04-04T08:43:18.275Z,19.03
2019-04-04T08:46:20.348Z,17.90
2019-04-04T08:49:22.479Z,12.93
2019-04-04T08:52:24.390Z,19.37
2019-04-04T08:55:26.481Z,15.33
2019-04-04T08:58:28.391Z,17.93
2019-04-04T09:01:30.757Z,19.80
2019-04-04T09:04:32.727Z,18.40
2019-04-04T09:07:34.714Z,16.10
2019-04-04T09:10:36.741Z,17.47
2019-04-04T09:13:38.750Z,12.70
2019-04-04T09:16:41.733Z,14.43
2019-04-04T09:19:43.733Z,12.30
2019-04-04T09:22:45.668Z,16.03
2019-04-04T09:25:47.806Z,21.63
2019-04-04T09:28:49.797Z,13.90
2019-04-04T09:31:51.677Z,13.07
2019-04-04T09:34:53.681Z,16.57
2019-04-04T09:37:55.636Z,18.70
2019-04-04T09:40:57.672Z,19.40
2019-04-04T09:43:59.674Z,13.63
2019-04-04T09:47:05.721Z,18.50
2019-04-04T09:50:06.783Z,13.10
2019-04-04T09:53:08.748Z,17.53
2019-04-04T09:56:12.011Z,14.97
2019-04-04T09:59:15.067Z,11.33
2019-04-04T10:02:19.924Z,11.20
2019-04-04T10:05:21.884Z,12.73
2019-04-04T10:08:23.917Z,14.80
2019-04-04T10:11:25.880Z,13.00
2019-04-04T10:14:27.809Z,12.20
2019-04-04T10:17:29.764Z,14.63
2019-04-04T10:20:31.747Z,18.10
2019-04-04T10:23:33.709Z,12.77
2019-04-04T10:26:35.846Z,16.83
2019-04-04T10:29:37.877Z,9.53
2019-04-04T10:32:39.895Z,15.73
2019-04-04T10:35:41.906Z,18.43
2019-04-04T10:38:43.860Z,13.43
2019-04-04T10:41:45.752Z,11.00
2019-04-04T10:44:47.779Z,16.60
2019-04-04T10:47:49.713Z,11.83
2019-04-04T10:50:51.723Z,11.37
2019-04-04T10:53:53.677Z,11.13
2019-04-04T10:56:55.719Z,15.87
2019-04-04T10:59:57.681Z,18.33
2019-04-04T11:02:59.913Z,10.30
2019-04-04T11:06:01.802Z,7.77
2019-04-04T11:09:06.434Z,10.43
2019-04-04T11:12:08.407Z,10.67
2019-04-04T11:15:10.364Z,8.43
2019-04-04T11:18:12.312Z,9.40
2019-04-04T11:21:14.556Z,21.87
2019-04-04T11:24:16.746Z,11.30
2019-04-04T11:27:18.895Z,11.43
2019-04-04T11:30:20.947Z,11.27
2019-04-04T11:33:22.894Z,30.43
2019-04-04T11:36:24.894Z,12.10
2019-04-04T11:39:26.850Z,11.00
2019-04-04T11:42:28.870Z,9.90
2019-04-04T11:45:30.850Z,9.23
2019-04-04T11:48:32.890Z,15.73
2019-04-04T11:51:34.816Z,12.23
2019-04-04T11:54:38.688Z,10.73
2019-04-04T11:57:40.730Z,9.20
2019-04-04T12:00:44.566Z,13.07
2019-04-04T12:03:47.179Z,8.10
2019-04-04T12:06:49.184Z,11.33
2019-04-04T12:09:51.110Z,11.40
2019-04-04T12:12:53.055Z,11.97
2019-04-04T12:15:54.957Z,11.53
2019-04-04T12:18:57.011Z,11.10
2019-04-04T12:21:58.914Z,10.53
2019-04-04T12:25:01.479Z,8.77
2019-04-04T12:28:03.630Z,8.10
2019-04-04T12:31:05.650Z,9.13
2019-04-04T12:34:07.605Z,10.57
2019-04-04T12:37:09.563Z,8.20
2019-04-04T12:40:20.403Z,8.17
2019-04-04T12:43:15.554Z,9.33
2019-04-04T12:46:17.534Z,8.20
2019-04-04T12:49:19.500Z,9.63
2019-04-04T12:52:21.728Z,7.73
2019-04-04T12:55:23.727Z,15.70
2019-04-04T12:58:25.771Z,14.13
2019-04-04T13:01:27.761Z,7.77
2019-04-04T13:04:31.871Z,8.77
2019-04-04T13:07:33.562Z,7.30
2019-04-04T13:10:35.565Z,17.00
2019-04-04T13:13:38.338Z,7.80
2019-04-04T13:16:40.950Z,8.43
2019-04-04T13:19:42.864Z,14.93
2019-04-04T13:22:46.153Z,7.60
2019-04-04T13:25:48.125Z,8.33
2019-04-04T13:28:50.263Z,8.93
2019-04-04T13:31:52.253Z,8.33
2019-04-04T13:34:59.492Z,12.83
2019-04-04T13:37:58.172Z,8.67
2019-04-04T13:41:00.141Z,10.10
2019-04-04T13:44:02.118Z,11.80
2019-04-04T13:47:04.343Z,8.67
2019-04-04T13:50:08.095Z,16.57
2019-04-04T13:53:10.169Z,10.20
2019-04-04T13:56:12.171Z,10.20
2019-04-04T13:59:14.198Z,8.10
2019-04-04T14:02:16.180Z,8.70
2019-04-04T14:05:18.168Z,7.63
2019-04-04T14:08:20.155Z,8.13
2019-04-04T14:11:22.171Z,9.27
2019-04-04T14:14:24.127Z,7.63
2019-04-04T14:17:26.813Z,8.50
2019-04-04T14:20:28.774Z,7.60
2019-04-04T14:23:30.775Z,8.73
2019-04-04T14:26:32.743Z,14.70
2019-04-04T14:29:36.252Z,8.63
2019-04-04T14:32:38.251Z,13.40
2019-04-04T14:35:40.504Z,9.23
2019-04-04T14:38:42.577Z,9.60
2019-04-04T14:41:44.530Z,13.13
2019-04-04T14:44:46.536Z,9.17
2019-04-04T14:47:48.536Z,7.40
2019-04-04T14:50:50.507Z,9.43
2019-04-04T14:53:52.530Z,8.53
2019-04-04T14:56:54.449Z,7.97
2019-04-04T14:59:56.540Z,9.13
2019-04-04T15:02:58.436Z,13.80
2019-04-04T15:06:00.463Z,8.67
2019-04-04T15:09:04.775Z,8.33
2019-04-04T15:12:07.030Z,9.43
2019-04-04T15:15:08.996Z,7.80
2019-04-04T15:18:11.030Z,12.27
2019-04-04T15:21:13.974Z,8.90
2019-04-04T15:24:16.084Z,24.70
2019-04-04T15:27:18.115Z,13.90
2019-04-04T15:30:20.883Z,10.07
2019-04-04T15:33:22.830Z,11.03
2019-04-04T15:36:24.850Z,10.10
2019-04-04T15:39:26.832Z,16.80
2019-04-04T15:42:28.887Z,9.97
2019-04-04T15:45:30.839Z,11.87
2019-04-04T15:48:32.873Z,13.53
2019-04-04T15:51:34.857Z,12.60
2019-04-04T15:54:36.899Z,12.27
2019-04-04T15:57:38.851Z,10.00
2019-04-04T16:00:40.939Z,11.53
2019-04-04T16:03:42.849Z,15.43
2019-04-04T16:06:44.829Z,9.70
2019-04-04T16:09:46.755Z,12.00
2019-04-04T16:12:48.768Z,12.97
2019-04-04T16:15:50.727Z,15.30
2019-04-04T16:18:52.728Z,12.13
2019-04-04T16:21:54.642Z,11.00
2019-04-04T16:24:56.654Z,10.03
2019-04-04T16:27:58.598Z,10.73
2019-04-04T16:31:00.812Z,11.83
2019-04-04T16:34:02.733Z,9.60
2019-04-04T16:37:04.770Z,11.43
2019-04-04T16:40:09.289Z,10.30
2019-04-04T16:43:11.767Z,12.97
2019-04-04T16:46:13.695Z,12.67
2019-04-04T16:49:15.689Z,10.87
2019-04-04T16:52:17.631Z,10.67
2019-04-04T16:55:19.644Z,17.63
2019-04-04T16:58:21.572Z,10.87
2019-04-04T17:01:23.610Z,11.60
2019-04-04T17:04:25.641Z,11.63
2019-04-04T17:07:27.611Z,14.90
2019-04-04T17:10:31.518Z,12.27
2019-04-04T17:13:33.484Z,14.40
2019-04-04T17:16:35.464Z,14.83
2019-04-04T17:19:37.444Z,13.07
2019-04-04T17:22:41.183Z,13.13
2019-04-04T17:25:43.519Z,13.63
2019-04-04T17:28:45.766Z,12.33
2019-04-04T17:31:50.284Z,11.67
2019-04-04T17:34:52.613Z,13.23
2019-04-04T17:37:54.609Z,15.90
2019-04-04T17:40:56.971Z,15.73
2019-04-04T17:43:59.101Z,15.70
2019-04-04T17:47:02.126Z,17.63
2019-04-04T17:50:08.955Z,20.53
2019-04-04T17:53:10.994Z,22.63
2019-04-04T17:56:13.357Z,23.77
2019-04-04T17:59:16.838Z,23.33
2019-04-04T18:02:18.983Z,21.57
2019-04-04T18:05:22.536Z,19.00
2019-04-04T18:08:25.899Z,22.27
2019-04-04T18:11:27.859Z,18.37
2019-04-04T18:14:33.802Z,18.60
2019-04-04T18:17:37.182Z,16.90
2019-04-04T18:20:41.382Z,16.50
2019-04-04T18:23:43.377Z,16.70
2019-04-04T18:26:46.434Z,13.13
2019-04-04T18:29:48.654Z,15.27
2019-04-04T18:32:53.342Z,19.33
2019-04-04T18:35:55.828Z,14.20
2019-04-04T18:38:57.803Z,15.73
2019-04-04T18:41:59.786Z,18.60
2019-04-04T18:45:06.118Z,17.40
2019-04-04T18:48:09.910Z,18.87
2019-04-04T18:51:12.784Z,17.33
2019-04-04T18:54:14.750Z,19.10
2019-04-04T18:57:17.324Z,21.70
2019-04-04T19:00:22.990Z,24.80
2019-04-04T19:03:29.577Z,26.47
2019-04-04T19:06:31.426Z,26.07
2019-04-04T19:09:33.783Z,24.43
2019-04-04T19:12:40.679Z,20.97
2019-04-04T19:15:44.633Z,17.23
2019-04-04T19:18:48.941Z,23.47
2019-04-04T19:21:52.814Z,32.30
2019-04-04T19:24:56.953Z,19.93
2019-04-04T19:28:01.931Z,21.77
2019-04-04T19:31:05.951Z,18.73
2019-04-04T19:34:08.411Z,20.97
2019-04-04T19:37:10.432Z,17.40
2019-04-04T19:40:13.915Z,23.40
2019-04-04T19:43:18.155Z,23.63
2019-04-04T19:46:19.866Z,21.13
2019-04-04T19:49:22.399Z,30.23
2019-04-04T19:52:24.961Z,22.97
2019-04-04T19:55:27.050Z,20.13
2019-04-04T19:58:29.432Z,25.80
2019-04-04T20:01:31.531Z,20.43
2019-04-04T20:04:37.024Z,22.83
2019-04-04T20:07:40.122Z,20.60
2019-04-04T20:10:43.373Z,19.27
2019-04-04T20:13:45.348Z,16.60
2019-04-04T20:16:47.906Z,23.60
2019-04-04T20:19:49.874Z,22.77
2019-04-04T20:22:51.826Z,18.23
2019-04-04T20:25:54.358Z,17.67
2019-04-04T20:28:56.313Z,19.87
2019-04-04T20:31:58.320Z,18.17
2019-04-04T20:35:00.411Z,18.70
2019-04-04T20:38:04.097Z,20.10
2019-04-04T20:41:07.887Z,22.67
2019-04-04T20:44:09.865Z,24.10
2019-04-04T20:47:11.895Z,16.90
2019-04-04T20:50:13.789Z,17.80
2019-04-04T20:53:15.760Z,22.23
2019-04-04T20:56:17.735Z,28.87
2019-04-04T20:59:19.740Z,21.20
2019-04-04T21:02:21.643Z,20.33
2019-04-04T21:05:23.787Z,29.30
2019-04-04T21:08:25.779Z,24.80
2019-04-04T21:11:28.710Z,34.47
2019-04-04T21:14:30.644Z,24.83
2019-04-04T21:17:32.666Z,24.27
2019-04-04T21:20:34.579Z,22.47
2019-04-04T21:23:36.602Z,28.17
2019-04-04T21:26:39.627Z,21.37
2019-04-04T21:29:41.678Z,30.67
2019-04-04T21:32:43.575Z,25.03
2019-04-04T21:35:45.716Z,27.70
2019-04-04T21:38:47.652Z,26.77
2019-04-04T21:41:50.984Z,24.77
2019-04-04T21:44:53.006Z,24.67
2019-04-04T21:47:55.031Z,27.73
2019-04-04T21:50:56.960Z,35.37
2019-04-04T21:53:58.882Z,31.73
2019-04-04T21:57:00.794Z,26.37
2019-04-04T22:00:06.195Z,23.33
2019-04-04T22:03:09.954Z,25.67
2019-04-04T22:06:11.979Z,24.07
2019-04-04T22:09:15.711Z,30.03
2019-04-04T22:12:17.808Z,27.87
2019-04-04T22:15:19.795Z,24.33
2019-04-04T22:18:21.832Z,24.03
2019-04-04T22:21:23.782Z,24.07
2019-04-04T22:24:25.750Z,24.00
2019-04-04T22:27:27.739Z,25.27
2019-04-04T22:30:29.746Z,25.37
2019-04-04T22:33:31.707Z,25.17
2019-04-04T22:36:33.859Z,29.43
2019-04-04T22:39:35.834Z,29.93
2019-04-04T22:42:37.871Z,30.90
2019-04-04T22:45:39.910Z,30.97
2019-04-04T22:48:41.931Z,33.93
2019-04-04T22:51:43.866Z,31.30
2019-04-04T22:54:45.911Z,31.43
2019-04-04T22:57:47.831Z,33.63
2019-04-04T23:00:49.878Z,29.97
2019-04-04T23:03:51.792Z,36.37
2019-04-04T23:06:53.904Z,33.80
2019-04-04T23:09:55.821Z,33.83
2019-04-04T23:12:57.747Z,36.73
2019-04-04T23:15:59.713Z,39.97
2019-04-04T23:19:01.722Z,34.20
2019-04-04T23:22:03.679Z,33.57
2019-04-04T23:25:08.761Z,36.80
2019-04-04T23:28:11.618Z,39.83
2019-04-04T23:31:13.633Z,38.30
2019-04-04T23:34:15.555Z,35.23
2019-04-04T23:37:17.761Z,35.57
2019-04-04T23:40:19.666Z,31.67
2019-04-04T23:43:21.672Z,34.03
2019-04-04T23:46:23.627Z,33.00
2019-04-04T23:49:25.591Z,36.53
2019-04-04T23:52:27.642Z,39.03
2019-04-04T23:55:29.636Z,33.80
2019-04-04T23:58:31.556Z,32.83
